Time;durP1;ratioP1;P1;durP2;ratioP2;P2;SDS_P1;SDS_P2;PMS_P1;PMS_P2;Temp;Humidity;BMP_temperature;BMP_pressure;BME280_temperature;BME280_humidity;BME280_pressure;Samples;Min_cycle;Max_cycle;Signal;HPM_P1;HPM_P2
2020/12/22 00:03:52;;;;;;;168.87;78.43;;;;;;;2.13;71.22;99749.20;250759;1132;115039;-65
2020/12/22 00:08:54;;;;;;;171.65;80.65;;;;;;;2.15;71.29;99738.69;250971;1132;115667;-63
2020/12/22 00:13:57;;;;;;;161.43;76.13;;;;;;;2.13;71.36;99734.31;250700;1132;115056;-66
2020/12/22 00:18:59;;;;;;;165.27;77.13;;;;;;;2.06;71.07;99729.19;250185;1134;115186;-64
2020/12/22 00:24:02;;;;;;;169.23;78.20;;;;;;;1.99;71.07;99720.55;249721;1133;114991;-66
2020/12/22 00:29:07;;;;;;;169.80;79.53;;;;;;;1.95;71.27;99720.64;249566;1135;115605;-63
2020/12/22 00:34:09;;;;;;;161.77;77.00;;;;;;;1.87;70.87;99712.89;249855;1135;115168;-65
2020/12/22 00:39:12;;;;;;;163.60;78.45;;;;;;;1.79;70.77;99726.11;250016;1135;115012;-65
2020/12/22 00:44:14;;;;;;;168.83;76.73;;;;;;;1.75;71.11;99716.55;250203;1134;115103;-65
2020/12/22 00:49:18;;;;;;;167.63;76.83;;;;;;;1.71;71.00;99714.02;249472;1134;115914;-62
2020/12/22 00:54:20;;;;;;;158.07;74.23;;;;;;;1.68;71.13;99716.68;250487;1134;114974;-63
2020/12/22 00:59:23;;;;;;;164.55;77.42;;;;;;;1.62;71.11;99715.00;250113;1134;116021;-64
2020/12/22 01:04:26;;;;;;;150.80;74.40;;;;;;;1.61;71.18;99701.03;249967;1134;115341;-64
2020/12/22 01:09:28;;;;;;;153.40;73.97;;;;;;;1.61;71.35;99687.91;249759;1135;115845;-64
2020/12/22 01:14:31;;;;;;;148.50;70.30;;;;;;;1.57;71.20;99694.10;249743;1134;115674;-65
2020/12/22 01:19:33;;;;;;;130.47;65.37;;;;;;;1.59;71.13;99673.08;249703;1134;115192;-65
2020/12/22 01:24:36;;;;;;;131.70;65.03;;;;;;;1.58;71.30;99669.59;249644;1134;115161;-63
2020/12/22 01:29:38;;;;;;;135.90;67.23;;;;;;;1.55;71.02;99653.91;250271;1135;114921;-66
2020/12/22 01:34:41;;;;;;;130.67;64.37;;;;;;;1.49;70.76;99656.61;249519;1134;115519;-63
2020/12/22 01:39:43;;;;;;;121.83;61.67;;;;;;;1.42;70.79;99655.84;251045;1134;115425;-64
2020/12/22 01:44:49;;;;;;;122.97;60.67;;;;;;;1.33;71.01;99649.89;249189;1134;115039;-63
2020/12/22 01:49:54;;;;;;;113.10;58.30;;;;;;;1.25;70.94;99641.25;250135;1135;114870;-66
2020/12/22 01:54:57;;;;;;;110.80;58.05;;;;;;;1.24;71.21;99634.28;250217;1134;115194;-63
2020/12/22 01:59:59;;;;;;;116.80;58.13;;;;;;;1.20;70.60;99643.95;250166;1135;115766;-64
2020/12/22 02:05:04;;;;;;;112.50;58.80;;;;;;;1.16;70.59;99630.02;252001;1134;115360;-63
2020/12/22 02:10:06;;;;;;;111.08;57.40;;;;;;;1.13;70.59;99619.58;251696;1133;115922;-64
2020/12/22 02:15:09;;;;;;;118.35;57.45;;;;;;;1.11;71.37;99600.38;252052;1134;115895;-65
2020/12/22 02:20:12;;;;;;;109.00;56.67;;;;;;;1.12;70.47;99598.62;251958;1132;115766;-66
2020/12/22 02:25:17;;;;;;;110.33;57.20;;;;;;;1.09;70.62;99603.94;251988;1132;115478;-63
2020/12/22 02:30:19;;;;;;;105.20;56.73;;;;;;;1.08;70.58;99589.08;251820;1138;139796;-63
2020/12/22 02:35:22;;;;;;;108.00;57.67;;;;;;;1.07;70.94;99590.83;251850;1134;115153;-65
2020/12/22 02:40:24;;;;;;;105.00;56.68;;;;;;;1.10;70.78;99589.93;251968;1134;115305;-63
2020/12/22 02:45:26;;;;;;;107.47;56.50;;;;;;;1.06;70.58;99590.88;251830;1139;115359;-65
2020/12/22 02:50:28;;;;;;;96.63;52.40;;;;;;;1.07;70.40;99582.11;251926;1133;115158;-64
2020/12/22 02:55:31;;;;;;;108.07;56.23;;;;;;;1.09;71.09;99560.24;251824;1136;115030;-64
2020/12/22 03:00:33;;;;;;;105.10;56.77;;;;;;;1.14;70.26;99553.16;251738;1134;115413;-62
2020/12/22 03:05:36;;;;;;;108.30;56.55;;;;;;;1.15;70.47;99543.53;251777;1133;115126;-63
2020/12/22 03:10:39;;;;;;;102.93;55.90;;;;;;;1.13;70.09;99533.09;251887;1137;115706;-65
2020/12/22 03:15:41;;;;;;;106.90;54.50;;;;;;;1.07;70.84;99533.17;251756;1134;116479;-64
2020/12/22 03:20:45;;;;;;;109.73;58.47;;;;;;;1.02;70.42;99531.50;251772;1134;114842;-64
2020/12/22 03:25:47;;;;;;;105.53;55.00;;;;;;;0.98;70.17;99530.69;251820;1134;115427;-64
2020/12/22 03:30:50;;;;;;;106.77;54.47;;;;;;;0.97;69.93;99528.97;251839;1133;115368;-63
2020/12/22 03:35:52;;;;;;;96.93;53.30;;;;;;;0.91;70.58;99524.67;251978;1132;115052;-65
2020/12/22 03:40:54;;;;;;;106.80;54.80;;;;;;;0.90;69.88;99508.99;251769;1134;115185;-64
2020/12/22 03:45:57;;;;;;;107.73;55.70;;;;;;;0.92;71.03;99496.75;251883;1135;115388;-62
2020/12/22 03:50:59;;;;;;;110.83;55.47;;;;;;;0.97;70.44;99492.28;251859;1134;115047;-65
2020/12/22 03:56:02;;;;;;;99.20;53.83;;;;;;;1.02;70.41;99505.30;251938;1135;115159;-65
2020/12/22 04:01:05;;;;;;;102.03;53.93;;;;;;;1.04;70.62;99501.77;251922;1135;115000;-64
2020/12/22 04:06:07;;;;;;;109.73;57.73;;;;;;;1.11;70.87;99499.92;251956;1134;115142;-63
2020/12/22 04:11:10;;;;;;;104.43;55.40;;;;;;;1.19;70.22;99495.44;251965;1133;115759;-65
2020/12/22 04:16:13;;;;;;;101.27;54.00;;;;;;;1.24;70.75;99492.72;251853;1132;115562;-63
2020/12/22 04:21:15;;;;;;;104.72;55.17;;;;;;;1.32;70.62;99480.34;252015;1132;115401;-65
2020/12/22 04:26:18;;;;;;;107.67;57.57;;;;;;;1.30;70.15;99485.63;251997;1133;116351;-63
2020/12/22 04:31:23;;;;;;;110.83;56.10;;;;;;;1.34;70.71;99471.56;251835;1137;115866;-65
2020/12/22 04:36:26;;;;;;;102.53;56.53;;;;;;;1.41;71.10;99465.31;252086;1132;115757;-66
2020/12/22 04:41:28;;;;;;;111.30;57.40;;;;;;;1.40;70.52;99447.00;251900;1132;115100;-66
2020/12/22 04:46:33;;;;;;;110.65;58.87;;;;;;;1.38;70.19;99454.88;252039;1139;115327;-65
2020/12/22 04:51:36;;;;;;;;;;;;;;;1.38;70.46;99451.39;251887;1134;114890;-64
2020/12/22 04:56:39;;;;;;;109.57;59.43;;;;;;;1.33;70.68;99451.48;252093;1133;102492;-64
2020/12/22 05:01:42;;;;;;;118.13;62.20;;;;;;;1.31;70.38;99450.64;251503;1133;115761;-62
2020/12/22 05:06:46;;;;;;;110.40;60.73;;;;;;;1.29;70.24;99446.30;251321;1133;114971;-62
2020/12/22 05:11:49;;;;;;;118.87;65.08;;;;;;;1.32;70.41;99454.98;251875;1134;115614;-63
2020/12/22 05:16:53;;;;;;;115.27;63.37;;;;;;;1.37;70.28;99457.54;251925;1132;115412;-62
2020/12/22 05:21:56;;;;;;;116.27;62.30;;;;;;;1.37;70.13;99442.67;251895;1134;115153;-62
2020/12/22 05:27:00;;;;;;;117.53;64.13;;;;;;;1.37;70.37;99424.31;252114;1132;115321;-62
2020/12/22 05:32:03;;;;;;;115.53;63.57;;;;;;;1.41;70.50;99420.73;251902;1132;115706;-65
2020/12/22 05:37:08;;;;;;;116.12;64.45;;;;;;;1.43;70.49;99415.48;251935;1133;115458;-64
2020/12/22 05:42:14;;;;;;;113.85;63.83;;;;;;;1.47;70.40;99413.66;251940;1134;115353;-67
2020/12/22 05:47:21;;;;;;;113.22;61.10;;;;;;;1.49;70.61;99415.34;252052;1132;115767;-65
2020/12/22 05:52:26;;;;;;;111.63;60.97;;;;;;;1.55;70.63;99412.60;251886;1133;115291;-65
2020/12/22 05:57:32;;;;;;;114.83;63.40;;;;;;;1.63;70.71;99399.33;252112;1132;115218;-67
2020/12/22 06:02:39;;;;;;;114.65;61.83;;;;;;;1.70;70.71;99394.82;251963;1132;115357;-67
2020/12/22 06:07:45;;;;;;;122.07;66.27;;;;;;;1.72;70.40;99386.03;252085;1139;115241;-66
2020/12/22 06:12:48;;;;;;;122.17;66.67;;;;;;;1.71;70.55;99389.56;251828;1135;114883;-63
2020/12/22 06:17:52;;;;;;;121.07;66.15;;;;;;;1.73;70.55;99389.52;251863;1134;115229;-66
2020/12/22 06:23:07;;;;;;;120.17;67.30;;;;;;;1.71;70.47;99379.07;251955;1132;115602;-64
2020/12/22 06:28:42;;;;;;;122.50;67.45;;;;;;;1.72;70.94;99375.54;251803;1134;114799;-65
2020/12/22 06:33:44;;;;;;;123.17;71.03;;;;;;;1.72;70.62;99369.44;251668;1134;114895;-65
2020/12/22 06:38:48;;;;;;;149.70;76.67;;;;;;;1.73;70.33;99368.53;251919;1134;115689;-67
2020/12/22 06:43:54;;;;;;;125.05;68.30;;;;;;;1.80;70.62;99357.00;250056;1134;115311;-63
2020/12/22 06:48:56;;;;;;;;;;;;;;;1.84;70.66;99342.95;251892;1135;115038;-64
2020/12/22 06:54:00;;;;;;;136.47;77.58;;;;;;;1.84;70.69;99340.33;251836;1133;102846;-65
2020/12/22 06:59:02;;;;;;;123.18;68.97;;;;;;;1.82;70.84;99334.23;249605;1133;115128;-65
2020/12/22 07:04:14;;;;;;;116.80;64.73;;;;;;;1.83;70.51;99336.81;251554;1142;115234;-63
2020/12/22 07:09:31;;;;;;;115.17;59.33;;;;;;;1.85;70.75;99334.17;250491;1134;115181;-61
2020/12/22 07:14:36;;;;;;;122.53;66.03;;;;;;;1.89;70.90;99333.20;251935;1135;115738;-65
2020/12/22 07:19:42;;;;;;;114.65;64.03;;;;;;;1.94;70.95;99330.46;252048;1134;115543;-64
2020/12/22 07:24:45;;;;;;;112.17;61.37;;;;;;;1.98;70.88;99321.65;251934;1135;116770;-62
2020/12/22 07:29:47;;;;;;;107.80;60.00;;;;;;;2.10;70.74;99314.33;251912;1139;115099;-65
2020/12/22 07:34:50;;;;;;;115.33;60.70;;;;;;;2.24;71.08;99311.41;251791;1135;115373;-64
2020/12/22 07:39:52;;;;;;;105.33;60.13;;;;;;;2.30;71.20;99302.50;251368;1134;115409;-67
2020/12/22 07:44:55;;;;;;;105.92;59.65;;;;;;;2.37;70.97;99311.95;251917;1134;116226;-67
2020/12/22 07:50:16;;;;;;;108.60;56.67;;;;;;;2.42;70.82;99299.58;251987;1133;115111;-68
2020/12/22 07:55:40;;;;;;;97.40;53.67;;;;;;;2.48;70.88;99283.68;251942;1134;115301;-68
2020/12/22 08:00:43;;;;;;;109.30;55.95;;;;;;;2.56;70.92;99279.08;252028;1134;115297;-68
2020/12/22 08:06:01;;;;;;;99.70;54.27;;;;;;;2.62;70.94;99269.33;252111;1132;115276;-67
2020/12/22 08:11:04;;;;;;;96.50;53.95;;;;;;;2.65;70.90;99274.48;252137;1132;115125;-66
2020/12/22 08:16:08;;;;;;;103.80;54.10;;;;;;;2.67;70.77;99277.94;251732;1134;115235;-67
2020/12/22 08:21:11;;;;;;;101.10;55.27;;;;;;;2.73;70.82;99277.78;252133;1133;115174;-65
2020/12/22 08:26:17;;;;;;;98.67;55.13;;;;;;;2.82;71.04;99261.78;252195;1132;115662;-65
2020/12/22 08:31:25;;;;;;;99.93;56.50;;;;;;;2.92;71.47;99250.11;251800;1133;115355;-66
2020/12/22 08:36:28;;;;;;;;;;;;;;;3.01;70.93;99251.61;252017;1133;114968;-65
2020/12/22 08:41:32;;;;;;;101.93;57.37;;;;;;;3.07;71.58;99231.27;251483;1134;102923;-66
2020/12/22 08:46:34;;;;;;;100.73;55.37;;;;;;;3.15;71.49;99223.14;251934;1133;115194;-66
2020/12/22 08:51:37;;;;;;;106.47;56.03;;;;;;;3.19;70.77;99216.88;251969;1133;115292;-65
2020/12/22 08:56:40;;;;;;;103.53;57.57;;;;;;;3.20;71.25;99205.48;251862;1135;115295;-64
2020/12/22 09:01:45;;;;;;;105.17;57.10;;;;;;;3.21;71.13;99193.19;251774;1135;115233;-66
2020/12/22 09:06:49;;;;;;;106.47;53.67;;;;;;;3.22;71.26;99187.02;252031;1132;115242;-66
2020/12/22 09:12:05;;;;;;;102.13;53.87;;;;;;;3.30;70.90;99177.14;252123;1134;115653;-65
2020/12/22 09:17:11;;;;;;;99.73;56.20;;;;;;;3.35;71.12;99169.11;252025;1134;115189;-66
2020/12/22 09:22:23;;;;;;;94.33;53.73;;;;;;;3.39;71.69;99157.58;251784;1141;114811;-67
2020/12/22 09:27:39;;;;;;;101.55;56.88;;;;;;;3.41;71.65;99153.14;252032;1133;115512;-68
2020/12/22 09:32:45;;;;;;;98.47;55.67;;;;;;;3.46;71.28;99146.80;251157;1135;114962;-66
2020/12/22 09:37:48;;;;;;;98.90;54.10;;;;;;;3.49;71.26;99132.70;251378;1135;115003;-66
2020/12/22 09:42:51;;;;;;;100.10;55.30;;;;;;;3.46;70.81;99138.91;251836;1135;115125;-66
2020/12/22 09:47:53;;;;;;;105.80;57.50;;;;;;;3.44;70.85;99124.11;251892;1135;114988;-67
2020/12/22 09:52:55;;;;;;;109.20;55.53;;;;;;;3.46;71.33;99122.27;251210;1134;115092;-66
2020/12/22 09:57:57;;;;;;;88.83;49.43;;;;;;;3.50;71.55;99119.52;249684;1135;114996;-67
2020/12/22 10:03:00;;;;;;;99.50;51.35;;;;;;;3.56;71.32;99126.33;248646;1134;115083;-67
2020/12/22 10:08:02;;;;;;;85.07;47.07;;;;;;;3.60;71.60;99108.67;250771;1132;115025;-67
2020/12/22 10:13:05;;;;;;;75.53;44.73;;;;;;;3.62;71.48;99105.09;251922;1133;115017;-66
2020/12/22 10:18:09;;;;;;;79.85;42.83;;;;;;;3.65;71.27;99086.56;251918;1136;114941;-66
2020/12/22 10:23:11;;;;;;;64.93;38.77;;;;;;;3.81;71.77;99088.70;251983;1135;115053;-69
2020/12/22 10:28:13;;;;;;;64.37;39.37;;;;;;;3.84;71.46;99099.98;251957;1135;115106;-67
2020/12/22 10:33:16;;;;;;;61.10;37.23;;;;;;;3.85;71.55;99082.41;251544;1139;114973;-68
2020/12/22 10:38:19;;;;;;;67.70;37.73;;;;;;;3.82;70.81;99070.21;252012;1135;114829;-68
2020/12/22 10:43:21;;;;;;;75.72;40.73;;;;;;;3.83;70.91;99064.03;252143;1133;115223;-68
2020/12/22 10:48:24;;;;;;;68.33;40.43;;;;;;;3.89;71.83;99058.55;251982;1134;115734;-68
2020/12/22 10:53:26;;;;;;;71.93;42.07;;;;;;;3.97;72.05;99051.27;251946;1139;115228;-68
2020/12/22 10:58:29;;;;;;;72.50;41.57;;;;;;;4.07;71.74;99045.66;251043;1133;115272;-67
2020/12/22 11:03:33;;;;;;;75.52;44.33;;;;;;;4.24;72.12;99035.38;250885;1133;114811;-66
2020/12/22 11:08:40;;;;;;;74.72;43.50;;;;;;;4.26;71.28;99020.38;252080;1134;115029;-68
2020/12/22 11:13:43;;;;;;;78.13;43.40;;;;;;;4.24;71.16;99009.03;252051;1136;115402;-67
2020/12/22 11:18:46;;;;;;;75.40;42.57;;;;;;;4.24;71.65;98998.50;251830;1135;115141;-67
2020/12/22 11:23:48;;;;;;;75.23;43.30;;;;;;;4.23;71.42;99002.06;251885;1132;115181;-69
2020/12/22 11:28:52;;;;;;;73.70;43.77;;;;;;;4.23;71.93;98994.16;250287;1134;115104;-67
2020/12/22 11:33:54;;;;;;;76.22;43.05;;;;;;;4.32;71.53;99004.36;252021;1135;114721;-67
2020/12/22 11:38:56;;;;;;;81.17;45.30;;;;;;;4.40;72.06;99007.55;252100;1132;115989;-66
2020/12/22 11:44:01;;;;;;;81.63;46.17;;;;;;;4.45;72.62;98989.81;251585;1134;115215;-66
2020/12/22 11:49:07;;;;;;;84.15;46.15;;;;;;;4.49;71.80;98986.14;252064;1133;115259;-63
2020/12/22 11:54:09;;;;;;;80.40;44.77;;;;;;;4.50;71.75;98976.45;251628;1134;115225;-66
2020/12/22 11:59:11;;;;;;;83.33;45.43;;;;;;;4.52;71.69;98964.09;252082;1132;115122;-65
2020/12/22 12:04:13;;;;;;;90.50;44.13;;;;;;;4.53;71.71;98960.52;252015;1135;114872;-64
2020/12/22 12:09:16;;;;;;;84.93;45.43;;;;;;;4.54;72.54;98951.69;249736;1134;115617;-65
2020/12/22 12:14:19;;;;;;;85.85;46.10;;;;;;;4.60;73.00;98959.36;250738;1141;115334;-64
2020/12/22 12:19:22;;;;;;;83.47;46.63;;;;;;;5.37;76.44;98938.64;248856;1134;115337;-66
2020/12/22 12:24:24;;;;;;;97.80;48.48;;;;;;;5.64;72.67;98939.24;251269;1134;115011;-66
2020/12/22 12:29:27;;;;;;;91.53;46.97;;;;;;;5.64;72.34;98941.88;251848;1135;115365;-67
2020/12/22 12:34:29;;;;;;;83.27;46.90;;;;;;;5.56;71.98;98937.84;250475;1133;115039;-64
2020/12/22 12:39:31;;;;;;;80.03;48.40;;;;;;;5.42;71.90;98935.80;251152;1133;115807;-67
2020/12/22 12:44:33;;;;;;;86.40;48.43;;;;;;;5.30;71.78;98931.91;251951;1134;115882;-67
2020/12/22 12:49:39;;;;;;;81.65;47.23;;;;;;;5.20;72.54;98935.86;251918;1134;115114;-67
2020/12/22 12:54:41;;;;;;;80.65;46.68;;;;;;;5.13;72.43;98943.17;251813;1134;115119;-67
2020/12/22 12:59:45;;;;;;;91.33;48.47;;;;;;;5.11;72.54;98945.00;251905;1134;115599;-67
2020/12/22 13:04:49;;;;;;;75.33;44.90;;;;;;;5.09;72.46;98936.28;252049;1135;115256;-66
2020/12/22 13:09:51;;;;;;;89.00;49.53;;;;;;;5.16;71.97;98931.61;251951;1133;115509;-67
2020/12/22 13:14:53;;;;;;;88.75;51.42;;;;;;;5.17;72.57;98918.37;252071;1135;115083;-67
2020/12/22 13:19:56;;;;;;;88.23;49.27;;;;;;;5.21;71.64;98911.19;251939;1133;114891;-67
2020/12/22 13:24:58;;;;;;;89.77;48.63;;;;;;;5.20;71.93;98910.34;251856;1136;114430;-67
2020/12/22 13:30:01;;;;;;;82.10;48.43;;;;;;;5.19;72.52;98913.88;252143;1133;114717;-67
2020/12/22 13:35:04;;;;;;;86.23;48.73;;;;;;;5.15;72.72;98908.80;251901;1135;115055;-67
2020/12/22 13:40:27;;;;;;;86.72;47.05;;;;;;;5.17;72.72;98896.42;251274;1132;115047;-67
2020/12/22 13:45:29;;;;;;;87.47;47.13;;;;;;;5.28;72.72;98904.73;252006;1134;115655;-67
2020/12/22 13:50:32;;;;;;;94.87;47.50;;;;;;;5.41;72.92;98910.34;251992;1132;114976;-66
2020/12/22 13:55:34;;;;;;;93.77;50.27;;;;;;;5.56;73.60;98895.61;250268;1134;114957;-68
2020/12/22 14:00:36;;;;;;;92.87;48.87;;;;;;;5.66;73.53;98905.69;250419;1134;115718;-68
2020/12/22 14:05:38;;;;;;;85.57;48.05;;;;;;;5.69;73.40;98894.15;251980;1132;115414;-68
2020/12/22 14:10:42;;;;;;;89.73;48.33;;;;;;;5.73;73.31;98902.78;252262;1132;115056;-67
2020/12/22 14:15:45;;;;;;;83.87;43.27;;;;;;;5.76;73.42;98895.58;250966;1135;116024;-67
2020/12/22 14:20:47;;;;;;;77.57;42.63;;;;;;;5.80;72.99;98894.52;251911;1133;114975;-67
2020/12/22 14:25:50;;;;;;;75.43;38.97;;;;;;;5.90;73.35;98900.24;251708;1135;115280;-67
2020/12/22 14:30:56;;;;;;;74.12;37.80;;;;;;;6.03;73.59;98905.87;251956;1134;115675;-68
2020/12/22 14:35:59;;;;;;;61.07;35.70;;;;;;;6.11;72.97;98890.51;252054;1133;202822;-66
2020/12/22 14:41:07;;;;;;;64.73;34.77;;;;;;;6.19;73.69;98895.46;252026;1133;115164;-67
2020/12/22 14:46:14;;;;;;;59.67;34.07;;;;;;;6.27;73.37;98888.02;251876;1135;115084;-67
2020/12/22 14:51:19;;;;;;;54.37;33.20;;;;;;;6.30;72.95;98898.45;251841;1139;115085;-68
2020/12/22 14:56:24;;;;;;;61.53;33.70;;;;;;;6.36;73.41;98895.52;250528;1134;114986;-64
2020/12/22 15:01:28;;;;;;;56.98;32.98;;;;;;;6.42;72.66;98903.17;249829;1134;115132;-66
2020/12/22 15:06:30;;;;;;;57.53;35.55;;;;;;;6.50;73.69;98887.79;251899;1133;115230;-66
2020/12/22 15:11:35;;;;;;;61.30;35.43;;;;;;;6.53;73.84;98887.64;251817;1133;116491;-66
2020/12/22 15:16:37;;;;;;;61.65;34.03;;;;;;;6.52;73.50;98888.58;251943;1133;114949;-66
2020/12/22 15:21:39;;;;;;;58.60;33.27;;;;;;;6.51;73.13;98889.49;251989;1132;114839;-66
2020/12/22 15:26:42;;;;;;;56.77;31.70;;;;;;;6.47;73.32;98882.64;251963;1134;114969;-66
2020/12/22 15:31:44;;;;;;;57.03;33.43;;;;;;;6.42;73.35;98876.73;251968;1134;114779;-67
2020/12/22 15:36:46;;;;;;;51.90;29.67;;;;;;;6.43;73.39;98877.59;252065;1135;115377;-66
2020/12/22 15:41:49;;;;;;;49.87;30.80;;;;;;;6.48;73.70;98875.56;251878;1135;115251;-66
2020/12/22 15:46:51;;;;;;;50.52;28.73;;;;;;;6.49;72.95;98870.22;251736;1135;115360;-65
2020/12/22 15:51:53;;;;;;;51.93;29.87;;;;;;;6.52;73.34;98861.27;251363;1134;114995;-65
2020/12/22 15:56:56;;;;;;;50.20;28.87;;;;;;;6.53;72.90;98863.85;252118;1134;114649;-66
2020/12/22 16:01:58;;;;;;;46.20;26.60;;;;;;;6.52;73.64;98867.44;251581;1135;115011;-66
2020/12/22 16:07:01;;;;;;;47.07;27.07;;;;;;;6.54;74.03;98876.12;251871;1135;115348;-65
2020/12/22 16:12:11;;;;;;;47.50;26.00;;;;;;;6.57;73.03;98880.42;251589;1134;115084;-65
2020/12/22 16:17:14;;;;;;;45.27;25.30;;;;;;;6.67;74.00;98872.91;251903;1135;115347;-64
2020/12/22 16:22:16;;;;;;;42.50;24.80;;;;;;;6.73;73.85;98881.39;251834;1134;115083;-63
2020/12/22 16:27:19;;;;;;;41.27;24.30;;;;;;;6.79;73.99;98889.03;251928;1135;115437;-63
2020/12/22 16:32:22;;;;;;;40.83;24.07;;;;;;;6.85;74.13;98874.63;250164;1134;115076;-65
2020/12/22 16:37:25;;;;;;;38.60;22.30;;;;;;;6.85;74.16;98878.13;251653;1134;115145;-64
2020/12/22 16:42:27;;;;;;;35.80;21.30;;;;;;;6.89;73.43;98881.48;251912;1134;115534;-64
2020/12/22 16:47:32;;;;;;;31.37;19.57;;;;;;;6.92;73.95;98881.33;251622;1133;115005;-65
2020/12/22 16:52:37;;;;;;;34.33;19.70;;;;;;;7.00;74.06;98868.59;251518;1134;115477;-63
2020/12/22 16:57:40;;;;;;;33.87;19.30;;;;;;;7.03;74.12;98867.55;251622;1136;115947;-64
2020/12/22 17:02:43;;;;;;;31.57;18.25;;;;;;;7.08;74.19;98869.05;251718;1133;115070;-63
2020/12/22 17:07:45;;;;;;;29.80;17.13;;;;;;;7.14;74.38;98867.89;251974;1132;115115;-64
2020/12/22 17:12:50;;;;;;;28.57;17.67;;;;;;;7.17;74.00;98867.74;252087;1133;115349;-62
2020/12/22 17:17:52;;;;;;;27.70;16.87;;;;;;;7.23;73.80;98879.78;251752;1135;115057;-66
2020/12/22 17:22:55;;;;;;;30.43;19.47;;;;;;;7.24;73.73;98884.16;251914;1133;115330;-63
2020/12/22 17:27:57;;;;;;;31.80;19.20;;;;;;;7.27;73.96;98887.52;251823;1133;115268;-65
2020/12/22 17:32:59;;;;;;;31.13;18.90;;;;;;;7.28;73.79;98881.27;250606;1134;114782;-65
2020/12/22 17:38:02;;;;;;;33.70;18.47;;;;;;;7.34;73.96;98872.17;251659;1134;115858;-64
2020/12/22 17:43:04;;;;;;;33.30;19.50;;;;;;;7.37;73.83;98902.90;251935;1135;114955;-63
2020/12/22 17:48:06;;;;;;;33.63;18.87;;;;;;;7.35;73.84;98897.70;251909;1135;115091;-65
2020/12/22 17:53:09;;;;;;;32.13;18.77;;;;;;;7.35;73.77;98887.95;249613;1136;115521;-65
2020/12/22 17:58:12;;;;;;;40.75;18.20;;;;;;;7.35;74.27;98884.47;251434;1134;115676;-62
2020/12/22 18:03:14;;;;;;;30.80;17.73;;;;;;;7.40;74.48;98874.48;251756;1134;115625;-64
2020/12/22 18:08:17;;;;;;;32.13;18.40;;;;;;;7.46;74.58;98894.49;250741;1135;115063;-67
2020/12/22 18:13:19;;;;;;;30.57;16.70;;;;;;;7.46;74.72;98897.99;248890;1134;115236;-65
2020/12/22 18:18:24;;;;;;;30.50;17.80;;;;;;;7.45;74.15;98895.44;251916;1134;115418;-65
2020/12/22 18:23:26;;;;;;;29.60;17.80;;;;;;;7.46;74.01;98897.14;251939;1133;115409;-64
2020/12/22 18:28:29;;;;;;;29.37;16.90;;;;;;;7.52;74.31;98904.77;252125;1135;115449;-64
2020/12/22 18:33:32;;;;;;;32.70;18.10;;;;;;;7.56;74.15;98893.08;252086;1134;115169;-65
2020/12/22 18:38:34;;;;;;;34.80;19.03;;;;;;;7.56;74.71;98908.97;251265;1134;115093;-67
2020/12/22 18:43:37;;;;;;;30.20;16.23;;;;;;;7.52;73.90;98894.19;250754;1134;114956;-68
2020/12/22 18:48:41;;;;;;;31.63;17.03;;;;;;;7.48;74.51;98898.78;251973;1135;115213;-67
2020/12/22 18:53:43;;;;;;;29.17;16.80;;;;;;;7.54;74.22;98897.59;252041;1136;115090;-69
2020/12/22 18:58:45;;;;;;;30.80;17.77;;;;;;;7.66;74.82;98902.26;251958;1134;115277;-68
2020/12/22 19:03:50;;;;;;;28.93;16.63;;;;;;;7.77;74.77;98906.98;251829;1135;115298;-68
2020/12/22 19:08:52;;;;;;;28.87;16.77;;;;;;;7.77;74.43;98907.84;250863;1134;115248;-66
2020/12/22 19:13:55;;;;;;;30.90;18.23;;;;;;;7.77;74.56;98909.64;250544;1135;115205;-64
2020/12/22 19:18:57;;;;;;;32.70;17.13;;;;;;;7.77;74.57;98910.48;252015;1135;115290;-63
2020/12/22 19:23:59;;;;;;;27.33;17.27;;;;;;;7.82;74.26;98908.47;252211;1135;115134;-62
2020/12/22 19:29:03;;;;;;;34.40;18.37;;;;;;;7.88;74.58;98917.02;251821;1135;115186;-64
2020/12/22 19:34:06;;;;;;;32.17;18.50;;;;;;;7.87;74.01;98907.36;251966;1135;115325;-64
2020/12/22 19:39:08;;;;;;;31.93;19.37;;;;;;;7.87;74.17;98917.95;251935;1134;115088;-65
2020/12/22 19:44:11;;;;;;;34.17;19.37;;;;;;;7.86;73.84;98917.11;251913;1134;115400;-66
2020/12/22 19:49:13;;;;;;;34.53;19.03;;;;;;;7.88;73.83;98931.14;251860;1135;114940;-63
2020/12/22 19:54:17;;;;;;;31.13;18.33;;;;;;;7.92;73.98;98932.69;251900;1135;115588;-64
2020/12/22 19:59:22;;;;;;;34.88;19.42;;;;;;;7.96;74.17;98922.78;251954;1135;115486;-66
2020/12/22 20:04:24;;;;;;;29.33;16.70;;;;;;;8.03;74.28;98927.66;251814;1135;115258;-63
2020/12/22 20:09:26;;;;;;;32.40;17.80;;;;;;;8.03;74.22;98929.46;252025;1135;115232;-64
2020/12/22 20:14:28;;;;;;;30.60;16.77;;;;;;;8.03;74.08;98924.16;251991;1137;115137;-67
2020/12/22 20:19:31;;;;;;;32.70;16.90;;;;;;;8.03;74.11;98925.02;251992;1134;115440;-66
2020/12/22 20:24:33;;;;;;;32.73;18.20;;;;;;;8.05;74.49;98919.65;251965;1134;213195;-64
2020/12/22 20:29:36;;;;;;;31.33;18.13;;;;;;;8.07;74.38;98925.70;251956;1135;115363;-65
2020/12/22 20:34:38;;;;;;;33.53;18.07;;;;;;;8.05;74.56;98917.84;252107;1133;116127;-65
2020/12/22 20:39:40;;;;;;;27.83;15.57;;;;;;;8.02;74.42;98925.11;252094;1135;115478;-64
2020/12/22 20:44:43;;;;;;;25.37;14.43;;;;;;;8.05;74.27;98922.30;251889;1135;115350;-64
2020/12/22 20:49:45;;;;;;;24.67;14.30;;;;;;;8.07;73.98;98931.00;252132;1135;115665;-63
2020/12/22 20:54:47;;;;;;;25.90;14.20;;;;;;;8.10;74.22;98922.89;251929;1134;116218;-63
2020/12/22 20:59:50;;;;;;;22.57;13.40;;;;;;;8.10;74.04;98927.34;251860;1135;115528;-63
2020/12/22 21:04:52;;;;;;;20.47;11.10;;;;;;;8.10;74.17;98916.73;251883;1142;114957;-62
2020/12/22 21:09:55;;;;;;;19.97;10.77;;;;;;;8.17;74.28;98910.16;252051;1134;115209;-64
2020/12/22 21:14:57;;;;;;;20.72;10.25;;;;;;;8.22;74.16;98918.70;252010;1134;115474;-61
2020/12/22 21:19:59;;;;;;;16.97;9.50;;;;;;;8.25;74.33;98919.42;252006;1135;115341;-62
2020/12/22 21:25:02;;;;;;;14.00;9.07;;;;;;;8.27;74.04;98922.83;251887;1132;115870;-64
2020/12/22 21:30:05;;;;;;;18.83;9.80;;;;;;;8.34;74.23;98920.70;251996;1134;115086;-64
2020/12/22 21:35:07;;;;;;;16.70;9.40;;;;;;;8.39;73.69;98931.08;251955;1133;115041;-64
2020/12/22 21:40:09;;;;;;;16.57;8.93;;;;;;;8.46;74.19;98924.52;252039;1134;115087;-62
2020/12/22 21:45:13;;;;;;;15.30;8.63;;;;;;;8.49;73.65;98927.86;250429;1134;114987;-65
2020/12/22 21:50:17;;;;;;;16.43;8.80;;;;;;;8.50;73.74;98926.91;251800;1133;115165;-62
2020/12/22 21:55:20;;;;;;;14.60;9.13;;;;;;;8.51;73.73;98925.11;251050;1132;114965;-64
2020/12/22 22:00:24;;;;;;;;;;;;;;;8.55;73.94;98926.64;251788;1134;115076;-62
2020/12/22 22:05:27;;;;;;;17.92;10.18;;;;;;;8.58;73.92;98922.97;252014;1134;103117;-62
2020/12/22 22:10:29;;;;;;;21.07;11.10;;;;;;;8.59;73.86;98925.52;252041;1133;115897;-63
2020/12/22 22:15:31;;;;;;;21.50;12.50;;;;;;;8.58;73.47;98930.92;251998;1133;115564;-63
2020/12/22 22:20:34;;;;;;;22.27;12.60;;;;;;;8.58;73.83;98934.43;251764;1134;115544;-64
2020/12/22 22:25:36;;;;;;;24.47;12.20;;;;;;;8.62;73.78;98941.27;251969;1132;115772;-62
2020/12/22 22:30:39;;;;;;;25.40;13.85;;;;;;;8.64;73.91;98935.90;251831;1134;115702;-62
2020/12/22 22:35:41;;;;;;;29.23;15.50;;;;;;;8.66;73.85;98926.04;249322;1132;115829;-64
2020/12/22 22:40:44;;;;;;;28.17;16.47;;;;;;;8.66;74.00;98928.69;252042;1132;115351;-63
2020/12/22 22:45:46;;;;;;;28.33;15.30;;;;;;;8.64;74.17;98939.41;251956;1135;115510;-64
2020/12/22 22:50:49;;;;;;;24.40;14.47;;;;;;;8.64;73.86;98939.41;251856;1133;115569;-62
2020/12/22 22:55:52;;;;;;;27.42;14.98;;;;;;;8.66;74.02;98929.58;251809;1135;115426;-64